createdAt,value
2019-02-04T00:00:15.875Z,99.90
2019-02-04T00:02:57.981Z,99.90
2019-02-04T00:05:37.242Z,99.90
2019-02-04T00:08:17.754Z,99.90
2019-02-04T00:10:59.371Z,99.90
2019-02-04T00:13:38.469Z,99.90
2019-02-04T00:16:17.680Z,99.90
2019-02-04T00:18:57.226Z,99.90
2019-02-04T00:21:38.812Z,99.90
2019-02-04T00:24:18.135Z,99.90
2019-02-04T00:26:57.910Z,99.90
2019-02-04T00:29:37.907Z,99.90
2019-02-04T00:32:17.250Z,99.90
2019-02-04T00:35:00.665Z,99.90
2019-02-04T00:37:40.631Z,99.90
2019-02-04T00:40:21.081Z,99.90
2019-02-04T00:43:00.935Z,99.90
2019-02-04T00:45:40.646Z,99.90
2019-02-04T00:48:20.021Z,99.90
2019-02-04T00:50:59.852Z,99.90
2019-02-04T00:53:39.609Z,99.90
2019-02-04T00:56:18.779Z,99.90
2019-02-04T00:58:58.024Z,99.90
2019-02-04T01:01:37.273Z,99.90
2019-02-04T01:04:17.534Z,99.90
2019-02-04T01:06:56.832Z,99.90
2019-02-04T01:09:36.671Z,99.90
2019-02-04T01:12:19.123Z,99.90
2019-02-04T01:14:59.659Z,99.90
2019-02-04T01:17:38.821Z,99.90
2019-02-04T01:20:26.042Z,99.90
2019-02-04T01:23:05.803Z,99.90
2019-02-04T01:25:44.939Z,99.90
2019-02-04T01:28:24.216Z,99.90
2019-02-04T01:31:04.599Z,99.90
2019-02-04T01:33:43.815Z,99.90
2019-02-04T01:36:23.063Z,99.90
2019-02-04T01:39:08.651Z,99.90
2019-02-04T01:41:47.778Z,99.90
2019-02-04T01:44:27.032Z,99.90
2019-02-04T01:47:14.485Z,99.90
2019-02-04T01:49:48.689Z,99.90
2019-02-04T01:52:29.232Z,99.90
2019-02-04T01:55:12.978Z,99.90
2019-02-04T01:57:55.265Z,99.90
2019-02-04T02:00:38.202Z,99.90
2019-02-04T02:03:17.517Z,99.90
2019-02-04T02:05:56.813Z,99.90
2019-02-04T02:08:36.166Z,99.90
2019-02-04T02:11:15.438Z,99.90
2019-02-04T02:13:54.754Z,99.90
2019-02-04T02:16:34.006Z,99.90
2019-02-04T02:19:13.287Z,99.90
2019-02-04T02:21:53.145Z,99.90
2019-02-04T02:24:32.450Z,99.90
2019-02-04T02:27:14.154Z,99.90
2019-02-04T02:29:53.889Z,99.90
2019-02-04T02:32:34.414Z,99.90
2019-02-04T02:35:13.798Z,99.90
2019-02-04T02:37:53.023Z,99.90
2019-02-04T02:40:34.485Z,99.90
2019-02-04T02:43:13.885Z,99.90
2019-02-04T02:45:53.664Z,99.90
2019-02-04T02:48:32.819Z,99.90
2019-02-04T02:51:12.545Z,99.90
2019-02-04T02:53:51.717Z,99.90
2019-02-04T02:56:30.842Z,99.90
2019-02-04T02:59:09.954Z,99.90
2019-02-04T03:01:49.637Z,99.90
2019-02-04T03:04:28.772Z,99.90
2019-02-04T03:07:08.059Z,99.90
2019-02-04T03:09:48.254Z,99.90
2019-02-04T03:12:27.389Z,99.90
2019-02-04T03:15:08.136Z,99.90
2019-02-04T03:17:52.242Z,99.90
2019-02-04T03:20:28.242Z,99.90
2019-02-04T03:23:08.072Z,99.90
2019-02-04T03:25:50.260Z,99.90
2019-02-04T03:28:29.986Z,99.90
2019-02-04T03:31:11.112Z,99.90
2019-02-04T03:33:50.396Z,99.90
2019-02-04T03:36:29.522Z,99.90
2019-02-04T03:39:09.911Z,99.90
2019-02-04T03:41:49.909Z,99.90
2019-02-04T03:44:29.780Z,99.90
2019-02-04T03:47:09.118Z,99.90
2019-02-04T03:49:49.097Z,99.90
2019-02-04T03:52:28.850Z,99.90
2019-02-04T03:55:10.464Z,99.90
2019-02-04T03:57:52.074Z,99.90
2019-02-04T04:00:35.282Z,99.90
2019-02-04T04:03:14.555Z,99.90
2019-02-04T04:05:54.860Z,99.90
2019-02-04T04:08:34.657Z,99.90
2019-02-04T04:11:13.854Z,99.90
2019-02-04T04:13:53.638Z,99.90
2019-02-04T04:16:33.386Z,99.90
2019-02-04T04:19:13.233Z,99.90
2019-02-04T04:22:10.579Z,99.90
2019-02-04T04:24:50.266Z,99.90
2019-02-04T04:27:30.206Z,99.90
2019-02-04T04:30:15.588Z,99.90
2019-02-04T04:32:55.775Z,99.90
2019-02-04T04:35:34.923Z,99.90
2019-02-04T04:38:14.632Z,99.90
2019-02-04T04:40:54.411Z,99.90
2019-02-04T04:43:35.670Z,99.90
2019-02-04T04:46:14.783Z,99.90
2019-02-04T04:48:55.685Z,99.90
2019-02-04T04:51:35.295Z,99.90
2019-02-04T04:54:15.610Z,99.90
2019-02-04T04:56:54.754Z,99.90
2019-02-04T04:59:34.199Z,99.90
2019-02-04T05:02:13.579Z,99.90
2019-02-04T05:04:53.446Z,99.90
2019-02-04T05:07:32.754Z,99.90
2019-02-04T05:10:15.586Z,99.90
2019-02-04T05:12:56.634Z,99.90
2019-02-04T05:15:36.632Z,99.90
2019-02-04T05:18:16.380Z,99.90
2019-02-04T05:20:55.557Z,99.90
2019-02-04T05:23:36.754Z,99.90
2019-02-04T05:26:15.827Z,99.90
2019-02-04T05:28:57.148Z,99.90
2019-02-04T05:31:38.548Z,99.90
2019-02-04T05:34:18.317Z,99.90
2019-02-04T05:36:57.427Z,99.90
2019-02-04T05:39:36.800Z,99.90
2019-02-04T05:42:16.517Z,99.90
2019-02-04T05:44:55.968Z,99.90
2019-02-04T05:47:35.667Z,99.90
2019-02-04T05:50:17.579Z,99.90
2019-02-04T05:52:59.383Z,99.90
2019-02-04T05:55:38.582Z,99.90
2019-02-04T05:58:18.036Z,99.90
2019-02-04T06:00:59.705Z,99.90
2019-02-04T06:03:38.999Z,99.90
2019-02-04T06:06:22.349Z,99.90
2019-02-04T06:09:01.609Z,99.90
2019-02-04T06:11:42.293Z,99.90
2019-02-04T06:14:23.753Z,99.90
2019-02-04T06:17:02.850Z,99.90
2019-02-04T06:19:42.244Z,99.90
2019-02-04T06:22:21.855Z,99.90
2019-02-04T06:25:01.122Z,99.90
2019-02-04T06:27:40.744Z,99.90
2019-02-04T06:30:20.509Z,99.90
2019-02-04T06:32:59.771Z,99.90
2019-02-04T06:35:39.567Z,99.90
2019-02-04T06:38:18.820Z,99.90
2019-02-04T06:40:57.973Z,99.90
2019-02-04T06:43:38.039Z,99.90
2019-02-04T06:46:17.422Z,99.90
2019-02-04T06:48:56.552Z,99.90
2019-02-04T06:51:38.880Z,99.90
2019-02-04T06:54:18.532Z,99.90
2019-02-04T06:56:58.798Z,99.90
2019-02-04T06:59:39.352Z,99.90
2019-02-04T07:02:19.199Z,99.90
2019-02-04T07:04:59.074Z,99.90
2019-02-04T07:07:38.271Z,99.90
2019-02-04T07:10:20.731Z,99.90
2019-02-04T07:13:00.864Z,99.90
2019-02-04T07:15:40.081Z,99.90
2019-02-04T07:18:19.305Z,99.90
2019-02-04T07:20:59.101Z,99.90
2019-02-04T07:23:38.284Z,99.90
2019-02-04T07:26:18.927Z,99.90
2019-02-04T07:28:58.037Z,99.90
2019-02-04T07:31:39.418Z,99.90
2019-02-04T07:34:22.782Z,99.90
2019-02-04T07:37:02.620Z,99.90
2019-02-04T07:39:46.873Z,99.90
2019-02-04T07:42:27.877Z,99.90
2019-02-04T07:45:08.721Z,99.90
2019-02-04T07:47:48.592Z,99.90
2019-02-04T07:50:27.868Z,99.90
2019-02-04T07:53:07.136Z,99.90
2019-02-04T07:55:46.512Z,99.90
2019-02-04T07:58:26.421Z,99.90
2019-02-04T08:01:05.760Z,99.90
2019-02-04T08:03:45.690Z,99.90
2019-02-04T08:06:25.920Z,99.90
2019-02-04T08:09:09.575Z,99.90
2019-02-04T08:11:49.696Z,99.90
2019-02-04T08:14:29.460Z,99.90
2019-02-04T08:17:12.692Z,99.90
2019-02-04T08:19:52.067Z,99.90
2019-02-04T08:22:36.428Z,99.90
2019-02-04T08:25:18.319Z,99.90
2019-02-04T08:27:59.140Z,99.90
2019-02-04T08:30:39.247Z,99.90
2019-02-04T08:33:18.942Z,99.90
2019-02-04T08:35:59.155Z,99.90
2019-02-04T08:38:42.392Z,99.90
2019-02-04T08:41:23.813Z,99.90
2019-02-04T08:44:03.604Z,99.90
2019-02-04T08:46:44.464Z,99.90
2019-02-04T08:49:24.117Z,99.90
2019-02-04T08:52:04.539Z,99.90
2019-02-04T08:54:44.311Z,99.90
2019-02-04T08:57:24.014Z,99.90
2019-02-04T09:00:08.593Z,99.90
2019-02-04T09:02:48.542Z,99.90
2019-02-04T09:05:30.298Z,99.90
2019-02-04T09:08:09.796Z,99.90
2019-02-04T09:10:49.309Z,99.90
2019-02-04T09:13:28.818Z,99.90
2019-02-04T09:16:08.502Z,99.90
2019-02-04T09:18:48.236Z,99.90
2019-02-04T09:21:27.655Z,97.70
2019-02-04T09:24:07.288Z,96.00
2019-02-04T09:26:46.775Z,94.20
2019-02-04T09:29:26.995Z,93.40
2019-02-04T09:32:06.912Z,88.80
2019-02-04T09:34:46.372Z,76.80
2019-02-04T09:37:26.014Z,73.70
2019-02-04T09:40:07.133Z,79.10
2019-02-04T09:42:46.830Z,73.90
2019-02-04T09:45:27.788Z,72.90
2019-02-04T09:48:10.430Z,79.50
2019-02-04T09:50:54.154Z,78.40
2019-02-04T09:53:35.718Z,69.40
2019-02-04T09:56:15.661Z,66.30
2019-02-04T09:58:55.059Z,66.70
2019-02-04T10:01:34.597Z,72.70
2019-02-04T10:04:14.319Z,91.80
2019-02-04T10:06:55.492Z,99.90
2019-02-04T10:09:35.085Z,99.90
2019-02-04T10:12:15.929Z,99.90
2019-02-04T10:14:55.581Z,99.90
2019-02-04T10:17:35.196Z,99.90
2019-02-04T10:20:16.206Z,99.90
2019-02-04T10:22:56.140Z,99.90
2019-02-04T10:25:38.478Z,99.90
2019-02-04T10:28:18.093Z,99.90
2019-02-04T10:30:57.792Z,99.90
2019-02-04T10:33:37.511Z,99.90
2019-02-04T10:36:20.605Z,99.60
2019-02-04T10:39:00.085Z,83.50
2019-02-04T10:41:39.692Z,68.10
2019-02-04T10:44:19.242Z,89.50
2019-02-04T10:46:59.068Z,92.80
2019-02-04T10:49:38.813Z,99.90
2019-02-04T10:52:18.287Z,99.90
2019-02-04T10:54:57.929Z,99.90
2019-02-04T10:57:40.634Z,99.30
2019-02-04T11:00:21.820Z,90.40
2019-02-04T11:03:01.527Z,90.00
2019-02-04T11:05:41.295Z,98.40
2019-02-04T11:08:21.044Z,92.10
2019-02-04T11:11:00.806Z,81.40
2019-02-04T11:13:40.594Z,73.90
2019-02-04T11:16:20.402Z,73.70
2019-02-04T11:19:00.404Z,67.00
2019-02-04T11:21:40.238Z,71.30
2019-02-04T11:24:19.928Z,65.50
2019-02-04T11:26:59.481Z,67.20
2019-02-04T11:29:39.746Z,72.70
2019-02-04T11:32:19.613Z,92.90
2019-02-04T11:34:59.265Z,94.30
2019-02-04T11:37:39.136Z,95.60
2019-02-04T11:40:23.762Z,88.40
2019-02-04T11:43:03.401Z,83.30
2019-02-04T11:45:43.528Z,83.10
2019-02-04T11:48:23.306Z,73.00
2019-02-04T11:51:09.723Z,81.00
2019-02-04T11:53:45.186Z,88.50
2019-02-04T11:56:26.198Z,95.40
2019-02-04T11:59:05.804Z,95.10
2019-02-04T12:01:45.692Z,99.00
2019-02-04T12:04:25.354Z,99.90
2019-02-04T12:07:05.079Z,95.30
2019-02-04T12:09:45.183Z,86.10
2019-02-04T12:12:39.641Z,72.60
2019-02-04T12:15:22.579Z,82.80
2019-02-04T12:18:05.433Z,86.60
2019-02-04T12:20:45.203Z,82.70
2019-02-04T12:23:30.040Z,91.90
2019-02-04T12:26:13.919Z,93.90
2019-02-04T12:28:53.395Z,99.30
2019-02-04T12:31:35.786Z,98.10
2019-02-04T12:34:23.982Z,94.90
2019-02-04T12:37:15.906Z,92.10
2019-02-04T12:40:03.410Z,95.10
2019-02-04T12:42:44.737Z,99.90
2019-02-04T12:45:43.001Z,99.90
2019-02-04T12:48:27.303Z,99.90
2019-02-04T12:51:33.324Z,99.90
2019-02-04T12:54:07.140Z,95.30
2019-02-04T12:57:03.220Z,97.00
2019-02-04T12:59:45.177Z,99.90
2019-02-04T13:02:24.316Z,99.90
2019-02-04T13:05:04.724Z,99.90
2019-02-04T13:07:44.373Z,96.90
2019-02-04T13:10:24.010Z,96.30
2019-02-04T13:13:04.874Z,95.70
2019-02-04T13:15:44.585Z,90.10
2019-02-04T13:18:24.364Z,72.00
2019-02-04T13:21:03.994Z,88.00
2019-02-04T13:23:43.658Z,92.70
2019-02-04T13:26:23.159Z,92.70
2019-02-04T13:29:02.697Z,87.90
2019-02-04T13:31:42.287Z,90.00
2019-02-04T13:34:21.901Z,82.30
2019-02-04T13:37:01.451Z,75.30
2019-02-04T13:39:41.181Z,78.00
2019-02-04T13:42:20.774Z,80.60
2019-02-04T13:45:00.686Z,82.00
2019-02-04T13:47:40.319Z,88.30
2019-02-04T13:50:21.216Z,90.90
2019-02-04T13:53:01.425Z,90.00
2019-02-04T13:55:41.504Z,90.80
2019-02-04T13:58:21.882Z,92.30
2019-02-04T14:01:01.727Z,82.40
2019-02-04T14:03:41.349Z,91.10
2019-02-04T14:06:20.985Z,97.50
2019-02-04T14:09:01.233Z,98.80
2019-02-04T14:11:47.356Z,99.90
2019-02-04T14:14:26.972Z,99.20
2019-02-04T14:17:07.124Z,98.60
2019-02-04T14:19:50.376Z,99.90
2019-02-04T14:22:30.035Z,98.60
2019-02-04T14:25:09.634Z,99.10
2019-02-04T14:27:50.510Z,99.90
2019-02-04T14:30:38.400Z,99.90
2019-02-04T14:33:23.331Z,99.90
2019-02-04T14:36:05.977Z,99.90
2019-02-04T14:38:45.934Z,99.90
2019-02-04T14:41:25.641Z,99.90
2019-02-04T14:44:18.064Z,99.90
2019-02-04T14:47:36.011Z,99.90
2019-02-04T14:50:33.154Z,99.90
2019-02-04T14:53:57.349Z,99.90
2019-02-04T14:57:22.221Z,99.90
2019-02-04T15:00:33.533Z,99.90
2019-02-04T15:03:32.982Z,99.90
2019-02-04T15:06:54.239Z,99.90
2019-02-04T15:10:15.149Z,99.90
2019-02-04T15:13:48.930Z,99.90
2019-02-04T15:17:22.114Z,99.90
2019-02-04T15:20:44.629Z,99.90
2019-02-04T15:24:10.611Z,99.90
2019-02-04T15:28:00.056Z,99.90
2019-02-04T15:31:36.394Z,99.90
2019-02-04T15:35:14.277Z,99.90
2019-02-04T15:38:38.488Z,99.90
2019-02-04T15:42:31.975Z,99.90
2019-02-04T15:45:40.892Z,99.90
2019-02-04T15:49:03.510Z,99.90
2019-02-04T15:51:52.247Z,99.90
2019-02-04T15:54:32.090Z,99.90
2019-02-04T15:57:11.976Z,99.90
2019-02-04T15:59:53.520Z,99.90
2019-02-04T16:02:32.757Z,99.90
2019-02-04T16:05:12.988Z,99.90
2019-02-04T16:07:53.071Z,99.90
2019-02-04T16:10:32.938Z,99.90
2019-02-04T16:13:12.643Z,99.90
2019-02-04T16:15:54.884Z,99.90
2019-02-04T16:18:34.078Z,99.90
2019-02-04T16:21:14.018Z,99.90
2019-02-04T16:23:54.302Z,99.90
2019-02-04T16:26:33.594Z,99.90
2019-02-04T16:29:12.922Z,99.90
2019-02-04T16:31:54.641Z,99.90
2019-02-04T16:34:36.081Z,99.90
2019-02-04T16:37:16.016Z,99.90
2019-02-04T16:39:55.414Z,99.90
2019-02-04T16:42:34.686Z,99.90
2019-02-04T16:45:19.852Z,99.90
2019-02-04T16:48:00.644Z,99.90
2019-02-04T16:50:39.963Z,99.90
2019-02-04T16:53:19.291Z,99.90
2019-02-04T16:55:59.153Z,99.90
2019-02-04T16:58:39.522Z,99.90
2019-02-04T17:01:25.394Z,99.90
2019-02-04T17:04:06.339Z,99.90
2019-02-04T17:06:47.678Z,99.90
2019-02-04T17:09:29.269Z,99.90
2019-02-04T17:12:12.748Z,99.90
2019-02-04T17:14:51.768Z,99.90
2019-02-04T17:17:31.721Z,99.90
2019-02-04T17:20:32.662Z,99.90
2019-02-04T17:23:21.913Z,99.90
2019-02-04T17:25:53.844Z,99.90
2019-02-04T17:28:33.617Z,99.90
2019-02-04T17:31:14.183Z,99.90
2019-02-04T17:33:56.407Z,99.90
2019-02-04T17:36:35.674Z,99.90
2019-02-04T17:39:15.599Z,99.90
2019-02-04T17:41:55.776Z,99.90
2019-02-04T17:44:35.713Z,99.90
2019-02-04T17:47:15.012Z,99.90
2019-02-04T17:49:55.218Z,99.90
2019-02-04T17:52:35.778Z,99.90
2019-02-04T17:55:28.224Z,99.90
2019-02-04T17:58:07.661Z,99.90
2019-02-04T18:00:49.895Z,99.90
2019-02-04T18:03:29.709Z,99.90
2019-02-04T18:06:11.480Z,99.90
2019-02-04T18:08:51.167Z,99.90
2019-02-04T18:11:37.958Z,99.90
2019-02-04T18:14:17.168Z,99.90
2019-02-04T18:16:56.539Z,99.90
2019-02-04T18:19:35.966Z,99.90
2019-02-04T18:22:19.886Z,99.90
2019-02-04T18:24:59.753Z,99.90
2019-02-04T18:27:39.166Z,99.90
2019-02-04T18:30:19.675Z,99.90
2019-02-04T18:32:59.091Z,99.90
2019-02-04T18:35:39.169Z,99.90
2019-02-04T18:38:18.511Z,99.90
2019-02-04T18:40:59.727Z,99.90
2019-02-04T18:43:39.511Z,99.90
2019-02-04T18:46:18.813Z,99.90
2019-02-04T18:48:59.546Z,99.90
2019-02-04T18:51:39.072Z,99.90
2019-02-04T18:54:18.819Z,99.90
2019-02-04T18:57:01.661Z,99.90
2019-02-04T18:59:41.757Z,99.90
2019-02-04T19:02:21.376Z,99.90
2019-02-04T19:05:01.246Z,99.90
2019-02-04T19:07:43.356Z,99.90
2019-02-04T19:10:24.414Z,99.90
2019-02-04T19:13:04.056Z,99.90
2019-02-04T19:15:43.456Z,99.90
2019-02-04T19:18:22.944Z,99.90
2019-02-04T19:21:02.526Z,99.90
2019-02-04T19:23:42.013Z,99.90
2019-02-04T19:26:21.348Z,99.90
2019-02-04T19:29:00.836Z,99.90
2019-02-04T19:31:41.263Z,99.90
2019-02-04T19:34:20.678Z,99.90
2019-02-04T19:37:00.254Z,99.90
2019-02-04T19:39:52.341Z,99.90
2019-02-04T19:42:32.032Z,99.90
2019-02-04T19:45:16.418Z,99.90
2019-02-04T19:47:56.841Z,99.90
2019-02-04T19:50:39.221Z,99.90
2019-02-04T19:53:22.715Z,99.90
2019-02-04T19:56:01.204Z,99.90
2019-02-04T19:58:42.960Z,99.90
2019-02-04T20:01:22.711Z,99.90
2019-02-04T20:04:03.202Z,99.90
2019-02-04T20:06:43.737Z,99.90
2019-02-04T20:09:23.957Z,99.90
2019-02-04T20:12:04.294Z,99.90
2019-02-04T20:14:45.432Z,99.90
2019-02-04T20:17:29.032Z,99.90
2019-02-04T20:20:11.323Z,99.90
2019-02-04T20:22:51.067Z,99.90
2019-02-04T20:25:31.805Z,99.90
2019-02-04T20:28:11.723Z,99.90
2019-02-04T20:30:51.305Z,99.90
2019-02-04T20:33:31.414Z,99.90
2019-02-04T20:36:12.149Z,99.90
2019-02-04T20:38:52.994Z,99.90
2019-02-04T20:41:32.921Z,99.90
2019-02-04T20:44:14.013Z,99.90
2019-02-04T20:46:53.947Z,99.90
2019-02-04T20:49:34.722Z,99.90
2019-02-04T20:52:14.507Z,99.90
2019-02-04T20:54:55.270Z,99.90
2019-02-04T20:57:35.041Z,99.90
2019-02-04T21:00:21.709Z,99.90
2019-02-04T21:03:02.167Z,99.90
2019-02-04T21:05:42.123Z,99.90
2019-02-04T21:08:21.588Z,99.90
2019-02-04T21:11:01.328Z,99.90
2019-02-04T21:13:40.799Z,99.90
2019-02-04T21:16:20.324Z,99.90
2019-02-04T21:18:59.672Z,99.90
2019-02-04T21:21:39.112Z,99.90
2019-02-04T21:24:18.416Z,99.90
2019-02-04T21:26:57.855Z,99.90
2019-02-04T21:29:37.613Z,99.90
2019-02-04T21:32:19.504Z,99.90
2019-02-04T21:34:59.025Z,99.90
2019-02-04T21:37:38.982Z,99.90
2019-02-04T21:40:19.023Z,99.90
2019-02-04T21:42:59.002Z,99.90
2019-02-04T21:45:38.218Z,99.90
2019-02-04T21:48:17.490Z,99.90
2019-02-04T21:50:56.923Z,99.90
2019-02-04T21:53:37.024Z,99.90
2019-02-04T21:56:16.289Z,99.90
2019-02-04T21:58:55.547Z,99.90
2019-02-04T22:01:34.788Z,99.90
2019-02-04T22:04:15.043Z,99.90
2019-02-04T22:06:55.471Z,99.90
2019-02-04T22:09:54.303Z,99.90
2019-02-04T22:12:38.204Z,99.90
2019-02-04T22:15:19.691Z,99.90
2019-02-04T22:17:59.231Z,99.90
2019-02-04T22:20:38.695Z,99.90
2019-02-04T22:23:18.027Z,99.90
2019-02-04T22:25:57.680Z,99.90
2019-02-04T22:28:37.017Z,99.90
2019-02-04T22:31:16.456Z,99.90
2019-02-04T22:33:55.623Z,99.90
2019-02-04T22:36:37.648Z,99.90
2019-02-04T22:39:17.083Z,99.90
2019-02-04T22:41:56.303Z,99.90
2019-02-04T22:44:35.641Z,99.90
2019-02-04T22:47:15.047Z,99.90
2019-02-04T22:49:55.016Z,99.90
2019-02-04T22:52:34.400Z,99.90
2019-02-04T22:55:14.417Z,99.90
2019-02-04T22:57:56.534Z,99.90
2019-02-04T23:01:23.297Z,99.90
2019-02-04T23:04:06.198Z,99.90
2019-02-04T23:06:45.357Z,99.90
2019-02-04T23:09:24.580Z,99.90
2019-02-04T23:12:04.272Z,99.90
2019-02-04T23:14:43.572Z,99.90
2019-02-04T23:17:22.955Z,99.90
2019-02-04T23:20:02.175Z,99.90
2019-02-04T23:22:44.015Z,99.90
2019-02-04T23:25:22.463Z,99.90
2019-02-04T23:28:01.951Z,99.90
2019-02-04T23:30:43.712Z,99.90
2019-02-04T23:33:34.167Z,99.90
2019-02-04T23:36:13.291Z,99.90
2019-02-04T23:38:52.511Z,99.90
2019-02-04T23:41:31.874Z,99.90
2019-02-04T23:44:11.192Z,99.90
2019-02-04T23:46:52.451Z,99.90
2019-02-04T23:49:31.698Z,99.90
2019-02-04T23:52:11.113Z,99.90
2019-02-04T23:54:50.339Z,99.90
2019-02-04T23:57:29.668Z,99.90
